Time;durP1;ratioP1;P1;durP2;ratioP2;P2;SDS_P1;SDS_P2;PMS_P1;PMS_P2;Temp;Humidity;BMP_temperature;BMP_pressure;BME280_temperature;BME280_humidity;BME280_pressure;Samples;Min_cycle;Max_cycle;Signal;HPM_P1;HPM_P2
2021/12/10 00:01:21;;;;;;;167.50;149.40;;;;;;;0.97;100.00;100349.22;5007533;28;20050;-80
2021/12/10 00:03:52;;;;;;;163.25;145.57;;;;;;;0.86;100.00;100353.75;5006317;28;20053;-79
2021/12/10 00:06:23;;;;;;;164.35;146.77;;;;;;;0.71;100.00;100354.44;5009241;28;20049;-79
2021/12/10 00:08:53;;;;;;;254.00;229.68;;;;;;;0.70;100.00;100356.25;5008525;28;20541;-78
2021/12/10 00:11:24;;;;;;;265.10;240.27;;;;;;;0.91;100.00;100356.72;4999341;28;20475;-78
2021/12/10 00:13:51;;;;;;;275.50;249.23;;;;;;;0.88;100.00;100361.44;5002734;28;20050;-78
2021/12/10 00:16:21;;;;;;;277.65;251.43;;;;;;;0.83;100.00;100376.75;5008386;28;20055;-78
2021/12/10 00:18:53;;;;;;;273.55;247.70;;;;;;;0.76;100.00;100376.56;5006175;28;20046;-82
2021/12/10 00:21:22;;;;;;;253.80;229.68;;;;;;;0.80;100.00;100371.84;5006147;28;20498;-78
2021/12/10 00:23:50;;;;;;;263.10;239.05;;;;;;;0.80;100.00;100372.66;5005238;28;20050;-79
2021/12/10 00:26:18;;;;;;;229.50;206.32;;;;;;;0.70;100.00;100371.94;4996974;28;20050;-77
2021/12/10 00:28:45;;;;;;;270.00;244.35;;;;;;;0.74;100.00;100372.44;5005926;28;20116;-79
2021/12/10 00:31:19;;;;;;;259.58;234.63;;;;;;;0.69;100.00;100371.06;5002764;28;20616;-82
2021/12/10 00:33:55;;;;;;;265.02;239.27;;;;;;;0.51;100.00;100359.00;5006978;28;20137;-82
2021/12/10 00:36:22;;;;;;;259.83;234.40;;;;;;;0.56;100.00;100362.81;5006493;28;20108;-78
2021/12/10 00:38:51;;;;;;;268.40;240.80;;;;;;;0.56;100.00;100356.75;5007867;28;20062;-79
2021/12/10 00:41:20;;;;;;;200.45;164.50;;;;;;;0.67;100.00;100356.53;5015727;28;20045;-78
2021/12/10 00:43:47;;;;;;;194.73;172.85;;;;;;;0.61;100.00;100357.97;5006866;28;20065;-82
2021/12/10 00:46:14;;;;;;;202.05;175.10;;;;;;;0.42;100.00;100356.31;5005236;28;20054;-78
2021/12/10 00:48:41;;;;;;;264.65;238.27;;;;;;;0.69;100.00;100354.56;5005272;28;20054;-82
2021/12/10 00:51:11;;;;;;;265.02;237.65;;;;;;;0.84;100.00;100350.44;5014079;28;20054;-79
2021/12/10 00:53:40;;;;;;;262.05;234.60;;;;;;;0.62;100.00;100343.09;5007207;28;20054;-80
2021/12/10 00:56:08;;;;;;;224.98;201.25;;;;;;;0.85;100.00;100325.16;5014248;28;20054;-79
2021/12/10 00:58:36;;;;;;;235.30;210.15;;;;;;;0.96;100.00;100327.50;5016233;28;20045;-82
2021/12/10 01:01:06;;;;;;;238.95;212.55;;;;;;;0.89;100.00;100342.16;5010335;28;20046;-81
2021/12/10 01:03:37;;;;;;;288.02;256.52;;;;;;;0.87;100.00;100325.78;5010390;28;20050;-80
2021/12/10 01:06:07;;;;;;;301.85;259.10;;;;;;;0.88;100.00;100338.72;5007549;28;20397;-78
2021/12/10 01:08:37;;;;;;;351.80;304.55;;;;;;;0.87;100.00;100329.22;5004880;28;20046;-81
2021/12/10 01:11:14;;;;;;;341.02;294.58;;;;;;;1.01;100.00;100317.41;5011413;28;20054;-78
2021/12/10 01:13:45;;;;;;;264.95;200.90;;;;;;;0.89;100.00;100318.63;5003348;28;20050;-79
2021/12/10 01:23:45;;;;;;;268.80;207.75;;;;;;;0.98;100.00;100330.78;5009495;28;20124;-82
2021/12/10 01:25:05;;;;;;;335.92;290.15;;;;;;;0.69;100.00;100303.13;5009176;28;20049;-82
2021/12/10 01:27:36;;;;;;;363.23;281.15;;;;;;;0.68;100.00;100303.28;5006220;28;20050;-77
2021/12/10 01:30:10;;;;;;;339.38;249.95;;;;;;;0.71;100.00;100299.53;5011705;28;20065;-78
2021/12/10 01:32:40;;;;;;;337.52;262.52;;;;;;;0.79;100.00;100304.84;5011285;28;20082;-79
2021/12/10 01:35:12;;;;;;;481.92;349.50;;;;;;;0.73;100.00;100287.97;5008987;28;20051;-82
2021/12/10 01:37:40;;;;;;;422.25;295.90;;;;;;;0.66;100.00;100277.28;5003520;28;20459;-79
2021/12/10 01:40:11;;;;;;;389.88;303.40;;;;;;;0.68;100.00;100290.22;5007305;28;20499;-79
2021/12/10 01:42:45;;;;;;;389.80;289.17;;;;;;;0.59;100.00;100281.47;5016147;28;20050;-78
2021/12/10 01:45:20;;;;;;;345.88;268.80;;;;;;;0.65;100.00;100280.06;5010834;28;20045;-79
2021/12/10 01:47:56;;;;;;;286.58;241.40;;;;;;;0.57;100.00;100269.53;5011463;28;20078;-78
2021/12/10 01:50:25;;;;;;;269.77;241.85;;;;;;;0.51;100.00;100273.56;5000892;28;20132;-78
2021/12/10 01:52:57;;;;;;;235.75;192.60;;;;;;;0.65;100.00;100272.22;5004871;28;20376;-82
2021/12/10 01:55:27;;;;;;;212.20;174.45;;;;;;;0.60;100.00;100270.03;5004640;28;20473;-78
2021/12/10 01:57:57;;;;;;;214.23;178.50;;;;;;;0.60;100.00;100271.84;5015567;28;20058;-78
2021/12/10 02:00:27;;;;;;;271.88;243.50;;;;;;;0.65;100.00;100269.59;5004041;28;20054;-79
2021/12/10 02:02:54;;;;;;;250.80;224.93;;;;;;;0.57;100.00;100253.84;5006879;28;20046;-82
2021/12/10 02:05:21;;;;;;;236.85;213.38;;;;;;;0.53;100.00;100252.53;5008815;28;20066;-78
2021/12/10 02:07:51;;;;;;;244.70;220.52;;;;;;;0.49;100.00;100245.97;5009214;28;20115;-79
2021/12/10 02:10:21;;;;;;;179.55;153.52;;;;;;;0.35;100.00;100247.31;5010752;28;20469;-83
2021/12/10 02:12:51;;;;;;;182.13;162.43;;;;;;;0.27;100.00;100242.00;5017176;28;20108;-79
2021/12/10 02:15:18;;;;;;;165.00;146.30;;;;;;;0.36;100.00;100234.09;5003975;28;20135;-82
2021/12/10 02:17:48;;;;;;;227.98;205.98;;;;;;;0.50;100.00;100245.81;5008783;28;20060;-81
2021/12/10 02:20:21;;;;;;;250.82;226.45;;;;;;;0.52;100.00;100254.31;5004729;28;20061;-78
2021/12/10 02:22:50;;;;;;;241.80;218.93;;;;;;;0.37;100.00;100246.19;5015041;28;20054;-78
2021/12/10 02:25:31;;;;;;;242.10;218.82;;;;;;;0.53;100.00;100239.47;5005985;28;20042;-81
2021/12/10 02:28:00;;;;;;;236.88;214.68;;;;;;;0.53;100.00;100242.06;5014520;28;20050;-82
2021/12/10 02:30:29;;;;;;;228.95;207.60;;;;;;;0.44;100.00;100238.56;5012509;28;20046;-79
2021/12/10 02:32:56;;;;;;;225.57;204.38;;;;;;;0.27;100.00;100245.44;5009234;28;20099;-78
2021/12/10 02:35:23;;;;;;;252.50;229.88;;;;;;;0.12;100.00;100239.97;5006340;28;20104;-82
2021/12/10 02:37:52;;;;;;;194.27;175.48;;;;;;;-0.02;100.00;100235.25;5001469;28;20062;-78
2021/12/10 02:40:21;;;;;;;196.45;177.32;;;;;;;0.27;100.00;100237.59;5015280;28;20463;-79
2021/12/10 02:42:50;;;;;;;192.68;173.45;;;;;;;0.34;100.00;100240.47;5016852;28;20050;-83
2021/12/10 02:45:19;;;;;;;186.00;167.50;;;;;;;0.49;100.00;100243.34;5013721;28;20465;-78
2021/12/10 02:47:47;;;;;;;192.73;173.77;;;;;;;0.45;100.00;100232.38;5015808;28;20459;-80
2021/12/10 02:50:19;;;;;;;192.15;173.40;;;;;;;0.50;100.00;100230.13;5005425;28;20461;-80
2021/12/10 02:52:46;;;;;;;181.50;163.48;;;;;;;0.52;100.00;100224.75;5011090;28;20398;-77
2021/12/10 02:55:16;;;;;;;173.57;156.15;;;;;;;0.55;100.00;100220.03;5006174;28;20419;-79
2021/12/10 02:57:44;;;;;;;163.65;146.18;;;;;;;0.49;100.00;100206.78;5019225;28;20092;-78
2021/12/10 03:02:47;;;;;;;195.05;153.93;;;;;;;0.35;100.00;100203.72;5010866;23;20062;-79
2021/12/10 03:05:15;;;;;;;258.38;207.45;;;;;;;0.48;100.00;100205.94;4986440;28;20047;-78
2021/12/10 03:07:43;;;;;;;243.65;193.18;;;;;;;0.59;100.00;100192.63;4989145;28;20062;-80
2021/12/10 03:10:18;;;;;;;201.20;176.00;;;;;;;0.73;100.00;100186.00;4985941;28;20105;-78
2021/12/10 03:12:45;;;;;;;191.68;173.20;;;;;;;0.78;100.00;100183.72;4992085;28;20046;-82
2021/12/10 03:15:13;;;;;;;194.68;176.05;;;;;;;0.94;100.00;100188.25;4987072;28;20110;-82
2021/12/10 03:17:42;;;;;;;202.20;183.07;;;;;;;0.90;100.00;100186.91;4986917;28;20050;-78
2021/12/10 03:20:15;;;;;;;332.42;258.52;;;;;;;0.84;100.00;100183.09;4988594;28;20066;-79
2021/12/10 03:22:43;;;;;;;231.02;206.80;;;;;;;0.83;100.00;100176.25;4984690;28;20047;-79
2021/12/10 03:25:12;;;;;;;178.50;160.43;;;;;;;0.58;100.00;100187.56;4987626;28;20470;-77
2021/12/10 03:27:44;;;;;;;195.23;175.65;;;;;;;0.80;100.00;100188.81;4977518;28;20490;-79
2021/12/10 03:30:15;;;;;;;181.18;161.82;;;;;;;0.74;100.00;100194.66;4993825;28;20054;-82
2021/12/10 03:32:43;;;;;;;199.05;179.40;;;;;;;0.77;100.00;100181.28;4989198;28;20125;-79
2021/12/10 03:35:14;;;;;;;208.90;188.35;;;;;;;0.83;100.00;100175.44;4988884;28;20145;-79
2021/12/10 03:37:43;;;;;;;189.67;170.43;;;;;;;0.83;100.00;100162.38;4987541;28;20089;-77
2021/12/10 03:40:13;;;;;;;183.20;163.07;;;;;;;0.71;100.00;100172.28;4985677;28;20306;-78
2021/12/10 03:42:44;;;;;;;193.60;173.82;;;;;;;0.82;100.00;100165.97;4977604;28;20086;-78
2021/12/10 03:45:17;;;;;;;196.00;174.50;;;;;;;0.79;100.00;100182.78;4981714;28;20648;-79
2021/12/10 03:47:46;;;;;;;189.00;168.38;;;;;;;0.62;100.00;100186.25;4987135;28;20046;-81
2021/12/10 03:50:22;;;;;;;207.30;185.88;;;;;;;0.65;100.00;100206.88;4991219;28;20116;-79
2021/12/10 03:52:49;;;;;;;243.00;204.75;;;;;;;0.58;100.00;100192.78;4989205;28;20058;-79
2021/12/10 03:55:16;;;;;;;258.15;205.50;;;;;;;0.56;100.00;100186.88;4990766;28;20050;-78
2021/12/10 03:57:47;;;;;;;228.82;197.80;;;;;;;0.40;100.00;100180.56;4993832;28;20065;-79
2021/12/10 04:00:15;;;;;;;217.15;193.77;;;;;;;0.45;100.00;100178.34;4984650;28;20517;-81
2021/12/10 04:02:42;;;;;;;213.00;185.13;;;;;;;0.50;100.00;100163.97;4991373;28;20136;-78
2021/12/10 04:05:09;;;;;;;235.75;209.77;;;;;;;0.44;100.00;100161.00;4986012;28;20109;-82
2021/12/10 04:07:36;;;;;;;246.15;219.25;;;;;;;0.59;100.00;100163.06;4980348;28;20054;-78
2021/12/10 04:10:07;;;;;;;227.73;184.75;;;;;;;0.60;100.00;100170.72;4984819;28;20051;-80
2021/12/10 04:12:34;;;;;;;241.65;161.38;;;;;;;0.44;100.00;100174.06;4980123;28;20103;-80
2021/12/10 04:15:05;;;;;;;218.90;158.35;;;;;;;0.64;100.00;100164.22;4986047;28;20461;-78
2021/12/10 04:17:32;;;;;;;245.98;186.77;;;;;;;0.62;100.00;100160.94;4987122;28;20073;-78
2021/12/10 04:19:59;;;;;;;260.38;200.25;;;;;;;0.69;100.00;100154.09;4983041;28;20054;-78
2021/12/10 04:22:32;;;;;;;236.88;192.07;;;;;;;0.55;100.00;100159.94;4986261;28;20050;-82
2021/12/10 04:24:59;;;;;;;235.18;195.95;;;;;;;0.60;100.00;100167.28;4983607;28;20546;-81
2021/12/10 04:27:26;;;;;;;314.70;201.57;;;;;;;0.34;100.00;100178.56;5000797;28;20105;-82
2021/12/10 04:29:56;;;;;;;225.25;201.07;;;;;;;0.38;100.00;100179.09;4986731;28;20050;-82
2021/12/10 04:32:26;;;;;;;239.77;214.25;;;;;;;0.62;100.00;100179.25;4989807;28;20113;-78
2021/12/10 04:34:54;;;;;;;239.70;214.85;;;;;;;0.62;100.00;100173.19;4994870;28;20050;-79
2021/12/10 04:37:22;;;;;;;294.58;235.48;;;;;;;0.39;100.00;100189.41;4995118;28;20073;-81
2021/12/10 04:39:49;;;;;;;238.60;215.20;;;;;;;0.62;100.00;100189.69;4991323;28;20058;-80
2021/12/10 04:42:18;;;;;;;214.05;192.57;;;;;;;0.60;100.00;100180.38;4980310;28;20050;-78
2021/12/10 04:44:46;;;;;;;230.82;205.57;;;;;;;0.59;100.00;100182.16;4985554;28;20486;-82
2021/12/10 04:47:13;;;;;;;232.65;209.68;;;;;;;0.60;100.00;100162.88;4985419;28;20054;-82
2021/12/10 04:49:41;;;;;;;240.38;217.45;;;;;;;0.66;100.00;100166.69;4997166;28;20058;-78
2021/12/10 04:52:08;;;;;;;231.95;182.20;;;;;;;0.65;100.00;100175.50;4993190;28;20120;-78
2021/12/10 04:54:36;;;;;;;191.15;169.48;;;;;;;0.64;100.00;100177.31;4988519;28;20473;-82
2021/12/10 04:57:04;;;;;;;201.82;179.23;;;;;;;0.70;100.00;100181.09;4998440;28;20113;-79
2021/12/10 04:59:33;;;;;;;229.85;204.95;;;;;;;0.80;100.00;100154.84;4993802;28;20660;-82
2021/12/10 05:02:02;;;;;;;242.50;217.32;;;;;;;0.79;100.00;100182.78;4981788;28;20529;-81
2021/12/10 05:04:30;;;;;;;310.85;262.95;;;;;;;0.94;100.00;100179.56;4988627;28;20062;-78
2021/12/10 05:06:59;;;;;;;275.15;245.82;;;;;;;0.95;100.00;100171.56;4990139;28;20051;-78
2021/12/10 05:09:27;;;;;;;247.15;220.65;;;;;;;0.91;100.00;100165.03;4985417;28;20541;-78
2021/12/10 05:11:56;;;;;;;263.13;230.93;;;;;;;1.02;100.00;100163.91;4989075;28;20043;-82
2021/12/10 05:14:25;;;;;;;297.02;264.55;;;;;;;0.84;100.00;100169.22;4989868;28;20525;-79
2021/12/10 05:16:54;;;;;;;270.50;237.13;;;;;;;0.88;100.00;100168.78;4991769;28;20109;-78
2021/12/10 05:19:26;;;;;;;282.75;240.50;;;;;;;1.01;100.00;100178.78;4985066;28;20391;-79
2021/12/10 05:21:54;;;;;;;273.65;227.00;;;;;;;1.03;100.00;100187.31;4994923;28;20079;-79
2021/12/10 05:24:23;;;;;;;312.45;244.45;;;;;;;1.05;100.00;100185.34;4992148;28;20059;-82
2021/12/10 05:26:49;;;;;;;318.25;244.40;;;;;;;0.92;100.00;100190.19;4994064;28;20104;-78
2021/12/10 05:29:16;;;;;;;350.13;249.75;;;;;;;0.93;100.00;100191.81;4994602;28;20541;-79
2021/12/10 05:31:44;;;;;;;331.45;240.45;;;;;;;0.99;100.00;100212.13;4985557;28;20084;-78
2021/12/10 05:34:15;;;;;;;309.42;238.48;;;;;;;1.11;100.00;100215.28;4984446;28;20427;-80
2021/12/10 05:36:41;;;;;;;293.63;238.38;;;;;;;1.18;100.00;100207.63;4987646;28;20549;-78
2021/12/10 05:39:12;;;;;;;216.93;191.35;;;;;;;1.27;100.00;100201.44;4984485;28;20109;-79
2021/12/10 05:41:40;;;;;;;221.40;197.65;;;;;;;1.46;100.00;100206.44;4991296;28;20140;-78
2021/12/10 05:44:07;;;;;;;221.80;197.45;;;;;;;1.46;100.00;100206.44;4982948;28;20155;-79
2021/12/10 05:46:37;;;;;;;288.15;258.80;;;;;;;1.49;100.00;100213.97;4983444;28;20057;-80
2021/12/10 05:49:04;;;;;;;298.67;268.58;;;;;;;1.51;100.00;100219.88;4981131;28;20046;-79
2021/12/10 05:51:31;;;;;;;302.88;272.05;;;;;;;1.54;100.00;100216.94;4987749;28;20188;-83
2021/12/10 05:53:58;;;;;;;315.15;283.35;;;;;;;1.60;100.00;100208.44;4987394;28;20122;-79
2021/12/10 05:56:25;;;;;;;287.15;257.02;;;;;;;1.57;100.00;100205.28;4986774;28;20051;-78
2021/12/10 05:58:53;;;;;;;295.50;264.55;;;;;;;1.40;100.00;100208.88;4987636;28;20047;-78
2021/12/10 06:01:22;;;;;;;300.23;268.95;;;;;;;1.58;100.00;100199.09;4988744;28;20054;-81
2021/12/10 06:03:54;;;;;;;292.35;261.33;;;;;;;1.61;100.00;100214.50;4989723;28;20284;-78
2021/12/10 06:06:22;;;;;;;297.52;267.45;;;;;;;1.53;100.00;100235.41;4989202;28;20080;-79
2021/12/10 06:08:50;;;;;;;281.55;253.93;;;;;;;1.50;100.00;100233.91;4983259;28;20054;-79
2021/12/10 06:11:17;;;;;;;264.73;236.50;;;;;;;1.48;100.00;100233.25;4989998;28;20050;-79
2021/12/10 06:13:45;;;;;;;268.27;240.75;;;;;;;1.59;100.00;100232.16;4985428;28;20062;-78
2021/12/10 06:16:14;;;;;;;229.57;204.25;;;;;;;1.66;100.00;100248.84;4986288;28;20388;-78
2021/12/10 06:18:42;;;;;;;290.85;255.52;;;;;;;1.66;100.00;100269.78;4986675;28;20569;-79
2021/12/10 06:21:10;;;;;;;260.45;213.85;;;;;;;1.57;100.00;100271.59;4983708;28;20058;-77
2021/12/10 06:23:37;;;;;;;275.65;228.68;;;;;;;1.77;100.00;100281.78;4983159;28;20042;-76
2021/12/10 06:26:04;;;;;;;287.60;240.13;;;;;;;1.63;100.00;100290.25;4983641;28;20050;-76
2021/12/10 06:28:32;;;;;;;273.85;245.98;;;;;;;1.80;100.00;100291.94;4978165;28;20062;-79
2021/12/10 06:30:59;;;;;;;276.50;247.95;;;;;;;1.79;100.00;100298.16;4982903;28;20129;-79
2021/12/10 06:33:29;;;;;;;264.65;235.57;;;;;;;1.86;100.00;100308.81;4981478;28;20046;-78
2021/12/10 06:36:00;;;;;;;291.00;259.20;;;;;;;1.99;100.00;100304.75;4982158;28;20066;-76
2021/12/10 06:38:28;;;;;;;285.17;257.08;;;;;;;1.87;100.00;100300.78;4981945;28;20062;-79
2021/12/10 06:40:55;;;;;;;296.00;265.38;;;;;;;1.97;100.00;100305.91;4984944;28;20062;-79
2021/12/10 06:43:23;;;;;;;314.05;281.50;;;;;;;1.99;100.00;100296.06;4989196;28;20050;-77
2021/12/10 06:45:52;;;;;;;308.27;276.58;;;;;;;1.93;100.00;100305.38;4983618;28;20042;-76
2021/12/10 06:48:21;;;;;;;324.02;290.33;;;;;;;2.30;100.00;100306.78;4983722;28;20060;-78
2021/12/10 06:50:53;;;;;;;305.90;273.35;;;;;;;2.65;100.00;100302.22;4981676;28;20129;-76
2021/12/10 06:53:22;;;;;;;344.15;276.25;;;;;;;2.01;100.00;100310.66;4981715;28;20042;-77
2021/12/10 06:55:50;;;;;;;325.13;271.60;;;;;;;2.16;100.00;100302.19;4982782;28;20062;-76
2021/12/10 06:58:18;;;;;;;304.73;271.20;;;;;;;2.09;100.00;100324.75;4979460;28;20117;-77
2021/12/10 07:00:47;;;;;;;326.67;291.55;;;;;;;2.67;100.00;100323.84;4983698;28;20124;-79
2021/12/10 07:03:18;;;;;;;304.45;254.18;;;;;;;2.17;100.00;100322.97;4978438;28;20061;-76
2021/12/10 07:05:46;;;;;;;320.73;287.35;;;;;;;2.22;100.00;100310.22;4981858;28;20121;-76
2021/12/10 07:08:16;;;;;;;315.65;281.38;;;;;;;2.10;100.00;100310.69;4980344;28;20482;-76
2021/12/10 07:10:43;;;;;;;311.05;275.35;;;;;;;2.11;100.00;100314.94;4980836;28;20051;-78
2021/12/10 07:13:12;;;;;;;323.25;276.75;;;;;;;2.11;100.00;100312.31;4990064;28;20112;-79
2021/12/10 07:15:42;;;;;;;299.50;257.75;;;;;;;2.79;100.00;100309.44;4980505;28;20407;-78
2021/12/10 07:18:10;;;;;;;304.10;260.83;;;;;;;2.09;100.00;100309.03;4980796;28;20129;-76
2021/12/10 07:20:38;;;;;;;337.13;273.13;;;;;;;2.34;100.00;100318.59;4981943;28;20077;-77
2021/12/10 07:23:05;;;;;;;318.63;278.25;;;;;;;2.21;100.00;100319.06;4982699;28;20046;-79
2021/12/10 07:25:33;;;;;;;350.52;289.70;;;;;;;2.09;100.00;100343.94;4982438;28;20105;-78
2021/12/10 07:28:00;;;;;;;362.80;287.27;;;;;;;2.10;100.00;100350.81;4984884;28;20137;-76
2021/12/10 07:30:28;;;;;;;349.58;273.10;;;;;;;2.12;100.00;100340.16;4984250;28;20113;-79
2021/12/10 07:32:56;;;;;;;348.77;255.77;;;;;;;2.19;100.00;100341.16;4982916;28;20046;-76
2021/12/10 07:35:23;;;;;;;380.50;277.40;;;;;;;2.25;100.00;100341.34;4979576;28;20104;-76
2021/12/10 07:37:50;;;;;;;398.75;304.67;;;;;;;2.32;100.00;100346.75;4983695;28;20487;-78
2021/12/10 07:40:22;;;;;;;393.92;305.48;;;;;;;2.23;100.00;100353.78;4985817;28;20481;-78
2021/12/10 07:42:50;;;;;;;369.15;315.70;;;;;;;2.28;100.00;100361.97;4988915;28;20137;-78
2021/12/10 07:45:18;;;;;;;389.15;311.23;;;;;;;2.22;100.00;100356.56;4981342;28;20561;-76
2021/12/10 07:47:50;;;;;;;389.00;311.45;;;;;;;2.32;100.00;100356.41;4978650;28;20051;-78
2021/12/10 07:50:23;;;;;;;410.02;303.15;;;;;;;2.38;100.00;100369.69;4982334;28;20050;-76
2021/12/10 07:52:54;;;;;;;402.83;294.40;;;;;;;2.47;100.00;100367.91;4983435;28;20050;-78
2021/12/10 07:55:25;;;;;;;411.65;308.75;;;;;;;2.46;100.00;100367.09;4980713;28;20065;-79
2021/12/10 07:57:53;;;;;;;424.65;323.13;;;;;;;2.42;100.00;100375.44;4978291;28;20468;-79
2021/12/10 08:00:23;;;;;;;404.40;314.30;;;;;;;2.35;100.00;100377.88;4978454;28;20133;-78
2021/12/10 08:02:49;;;;;;;381.10;308.73;;;;;;;2.69;100.00;100384.81;4979050;28;20724;-76
2021/12/10 08:05:18;;;;;;;384.98;297.73;;;;;;;2.88;100.00;100384.50;4977726;28;20653;-76
2021/12/10 08:07:44;;;;;;;410.63;301.92;;;;;;;2.60;100.00;100378.72;4983497;28;20491;-76
2021/12/10 08:10:14;;;;;;;428.98;317.77;;;;;;;2.36;100.00;100386.56;4979578;28;20117;-79
2021/12/10 08:12:41;;;;;;;377.40;298.17;;;;;;;3.04;100.00;100373.19;4979684;28;20121;-77
2021/12/10 08:15:10;;;;;;;391.90;310.65;;;;;;;2.62;100.00;100373.34;4980915;28;20050;-78
2021/12/10 08:17:38;;;;;;;384.05;305.42;;;;;;;2.54;100.00;100371.50;4980634;28;20054;-76
2021/12/10 08:20:07;;;;;;;363.83;289.13;;;;;;;2.57;100.00;100367.75;4981641;28;20054;-78
2021/12/10 08:22:34;;;;;;;342.08;278.25;;;;;;;2.69;100.00;100359.44;4985742;28;20047;-77
2021/12/10 08:25:01;;;;;;;312.98;275.92;;;;;;;2.82;100.00;100364.19;4976306;28;20506;-76
2021/12/10 08:27:28;;;;;;;313.95;279.33;;;;;;;2.88;100.00;100374.03;4981150;28;20050;-78
2021/12/10 08:29:58;;;;;;;338.30;301.83;;;;;;;2.86;100.00;100373.34;4985121;28;20109;-76
2021/12/10 08:32:26;;;;;;;309.20;275.55;;;;;;;2.98;100.00;100371.22;4987289;28;20054;-76
2021/12/10 08:34:53;;;;;;;323.65;292.10;;;;;;;2.95;100.00;100375.00;4980609;28;20113;-78
2021/12/10 08:37:20;;;;;;;305.02;274.65;;;;;;;2.88;100.00;100376.63;4980185;28;20376;-76
2021/12/10 08:39:47;;;;;;;304.00;272.40;;;;;;;2.98;100.00;100372.03;4981797;28;20133;-77
2021/12/10 08:42:15;;;;;;;316.60;284.77;;;;;;;2.94;100.00;100375.97;4980325;28;20133;-76
2021/12/10 08:44:43;;;;;;;286.45;258.73;;;;;;;2.92;100.00;100366.63;4987427;28;20085;-76
2021/12/10 08:47:12;;;;;;;274.27;248.70;;;;;;;2.91;100.00;100371.06;4981317;28;20566;-76
2021/12/10 08:49:40;;;;;;;302.77;275.30;;;;;;;3.11;100.00;100373.34;4984767;28;20054;-76
2021/12/10 08:52:09;;;;;;;305.77;278.60;;;;;;;3.12;100.00;100375.00;4980753;28;20467;-78
2021/12/10 08:54:37;;;;;;;308.52;279.45;;;;;;;3.18;100.00;100379.59;4980118;28;20435;-78
2021/12/10 08:57:05;;;;;;;310.77;281.13;;;;;;;3.21;100.00;100377.44;4981371;28;20047;-78
2021/12/10 08:59:34;;;;;;;288.63;261.55;;;;;;;3.27;100.00;100380.38;4985665;28;20050;-79
2021/12/10 09:02:18;;;;;;;276.20;250.25;;;;;;;3.28;100.00;100371.53;4981932;28;20512;-78
2021/12/10 09:04:46;;;;;;;304.23;275.33;;;;;;;3.25;100.00;100358.72;4981618;28;20050;-76
2021/12/10 09:07:16;;;;;;;325.38;294.35;;;;;;;3.35;100.00;100339.16;4979983;28;20467;-78
2021/12/10 09:09:45;;;;;;;321.50;289.02;;;;;;;3.32;100.00;100351.81;4983390;28;20046;-76
2021/12/10 09:12:17;;;;;;;302.55;276.02;;;;;;;3.41;100.00;100349.00;4977046;28;20423;-76
2021/12/10 09:14:48;;;;;;;271.70;249.80;;;;;;;3.28;100.00;100368.91;4984419;28;20474;-79
2021/12/10 09:17:21;;;;;;;277.70;254.70;;;;;;;3.39;100.00;100344.94;4984150;28;20054;-76
2021/12/10 09:19:51;;;;;;;286.52;264.00;;;;;;;3.40;100.00;100346.56;4983438;28;20046;-76
2021/12/10 09:22:18;;;;;;;282.50;257.75;;;;;;;3.51;100.00;100348.84;4983407;28;20463;-76
2021/12/10 09:24:45;;;;;;;276.27;249.77;;;;;;;3.61;100.00;100338.94;4985172;28;20117;-79
2021/12/10 09:27:14;;;;;;;274.42;252.65;;;;;;;3.95;100.00;100347.50;4992488;28;20128;-76
2021/12/10 09:29:44;;;;;;;275.48;252.77;;;;;;;3.61;100.00;100346.00;4983863;28;20101;-77
2021/12/10 09:32:14;;;;;;;261.38;240.45;;;;;;;3.62;100.00;100342.38;4986785;28;20058;-78
2021/12/10 09:34:41;;;;;;;277.85;253.70;;;;;;;3.35;100.00;100347.03;4981131;28;20047;-79
2021/12/10 09:37:09;;;;;;;268.55;245.25;;;;;;;3.37;100.00;100336.41;4984541;28;20055;-79
2021/12/10 09:39:37;;;;;;;276.98;253.73;;;;;;;3.35;100.00;100333.09;4989850;28;20116;-76
2021/12/10 09:42:06;;;;;;;272.98;249.35;;;;;;;3.26;100.00;100331.50;4983447;28;20051;-78
2021/12/10 09:44:33;;;;;;;277.65;253.77;;;;;;;3.37;100.00;100323.25;4984320;28;20426;-78
2021/12/10 09:47:01;;;;;;;275.10;251.50;;;;;;;3.31;100.00;100321.31;4986565;28;20116;-78
2021/12/10 09:49:28;;;;;;;280.23;255.70;;;;;;;3.40;100.00;100322.94;4980939;28;20092;-78
2021/12/10 09:51:59;;;;;;;282.48;258.13;;;;;;;3.39;100.00;100330.00;4984234;28;20093;-76
2021/12/10 09:54:29;;;;;;;280.63;256.63;;;;;;;3.42;100.00;100332.28;4983151;28;20054;-76
2021/12/10 09:57:01;;;;;;;265.08;243.18;;;;;;;3.52;100.00;100305.81;4980347;28;20046;-78
2021/12/10 09:59:29;;;;;;;278.65;256.15;;;;;;;3.57;100.00;100305.28;4988199;28;20109;-79
2021/12/10 10:01:59;;;;;;;297.98;271.73;;;;;;;3.61;100.00;100306.59;4983978;28;20133;-76
2021/12/10 10:04:27;;;;;;;272.05;248.85;;;;;;;3.56;100.00;100312.34;4981574;28;20054;-78
2021/12/10 10:06:57;;;;;;;281.70;258.25;;;;;;;3.61;100.00;100311.88;4986347;28;20146;-76
2021/12/10 10:09:26;;;;;;;280.88;257.98;;;;;;;3.64;100.00;100308.91;4984114;28;20599;-78
2021/12/10 10:11:58;;;;;;;278.27;255.90;;;;;;;3.76;100.00;100283.88;4991916;28;20054;-77
2021/12/10 10:14:26;;;;;;;272.38;249.50;;;;;;;4.17;100.00;100281.00;4984241;28;20047;-76
2021/12/10 10:16:54;;;;;;;283.65;259.92;;;;;;;4.36;100.00;100269.22;4983912;28;20125;-77
2021/12/10 10:19:22;;;;;;;286.75;263.50;;;;;;;4.40;100.00;100262.59;4990952;28;20050;-78
2021/12/10 10:21:50;;;;;;;279.63;257.23;;;;;;;4.46;100.00;100272.41;4983251;28;20046;-78
2021/12/10 10:24:18;;;;;;;278.17;257.65;;;;;;;4.53;100.00;100257.56;4981539;28;20047;-76
2021/12/10 10:26:49;;;;;;;257.80;238.43;;;;;;;4.60;100.00;100265.59;4980960;28;20059;-77
2021/12/10 10:29:20;;;;;;;238.63;219.05;;;;;;;4.42;100.00;100259.78;4990083;28;20161;-77
2021/12/10 10:31:54;;;;;;;260.85;240.27;;;;;;;4.93;100.00;100236.31;5000209;28;20054;-76
2021/12/10 10:34:25;;;;;;;267.45;247.15;;;;;;;5.40;100.00;100222.75;4982443;28;20109;-78
2021/12/10 10:36:54;;;;;;;270.42;250.20;;;;;;;5.22;100.00;100225.78;4980949;28;20514;-75
2021/12/10 10:39:24;;;;;;;236.82;219.10;;;;;;;5.10;100.00;100226.44;4979912;28;20050;-77
2021/12/10 10:41:53;;;;;;;236.32;219.45;;;;;;;4.89;100.00;100241.13;4979966;28;20058;-76
2021/12/10 10:44:22;;;;;;;242.10;224.40;;;;;;;4.90;100.00;100250.66;4983407;28;20152;-78
2021/12/10 10:46:52;;;;;;;238.98;221.18;;;;;;;4.72;100.00;100243.09;4981286;28;20475;-78
2021/12/10 10:49:37;;;;;;;224.60;207.48;;;;;;;4.89;100.00;100235.84;4986896;28;20419;-75
2021/12/10 10:52:28;;;;;;;238.73;221.38;;;;;;;4.81;100.00;100251.72;4981176;28;20499;-77
2021/12/10 10:54:56;;;;;;;238.35;220.00;;;;;;;4.55;100.00;100249.50;4981780;28;20043;-78
2021/12/10 10:57:26;;;;;;;243.63;224.75;;;;;;;4.67;100.00;100250.72;4984098;28;20116;-76
2021/12/10 10:59:58;;;;;;;225.57;207.70;;;;;;;4.54;100.00;100251.31;4983908;28;20055;-76
2021/12/10 11:02:27;;;;;;;231.23;213.57;;;;;;;4.52;100.00;100253.31;4985597;28;20050;-79
2021/12/10 11:04:54;;;;;;;239.57;219.30;;;;;;;4.62;100.00;100244.34;4983126;28;20047;-76
2021/12/10 11:07:24;;;;;;;256.92;234.38;;;;;;;4.58;100.00;100236.00;4982260;28;20117;-78
2021/12/10 11:09:54;;;;;;;257.25;235.60;;;;;;;4.65;100.00;100233.47;4987854;28;20054;-78
2021/12/10 11:12:26;;;;;;;252.52;231.85;;;;;;;4.76;100.00;100227.78;4993810;28;20046;-77